Terminal Aerodrome Forecast
Issued by NWS

Home | Current Version | Previous Version | Text Only | Print | Product List | Glossary Off
Versions: 1 2 3 4 5 6 7 8 9 10 11 12 13 14 15 16

000
FTUS43 KTOP 152339
TAFFOE
TAF
KFOE 152339Z 1600/1624 33009KT P6SM SCT030
      TEMPO 1600/1601 33015G22KT=

USA.gov is the U.S. government's official web portal to all federal, state and local government web resources and services.